sensor_id;sensor_type;location;lat;lon;timestamp;pressure;altitude;pressure_sealevel;temperature;humidity
78845;BME280;68195;50.854;2.860;2024-02-21T00:00:05;102216.56;;;9.08;100.00
78845;BME280;68195;50.854;2.860;2024-02-21T00:02:31;102180.38;;;8.92;100.00
78845;BME280;68195;50.854;2.860;2024-02-21T00:04:59;102194.09;;;9.00;100.00
78845;BME280;68195;50.854;2.860;2024-02-21T00:07:27;102204.25;;;9.14;100.00
78845;BME280;68195;50.854;2.860;2024-02-21T00:09:55;102195.72;;;9.08;100.00
78845;BME280;68195;50.854;2.860;2024-02-21T00:12:23;102196.47;;;9.13;100.00
78845;BME280;68195;50.854;2.860;2024-02-21T00:14:48;102154.28;;;8.94;100.00
78845;BME280;68195;50.854;2.860;2024-02-21T00:17:13;102184.38;;;9.09;100.00
78845;BME280;68195;50.854;2.860;2024-02-21T00:19:41;102180.91;;;9.08;100.00
78845;BME280;68195;50.854;2.860;2024-02-21T00:22:09;102174.91;;;9.04;100.00
78845;BME280;68195;50.854;2.860;2024-02-21T00:24:34;102158.72;;;8.89;100.00
78845;BME280;68195;50.854;2.860;2024-02-21T00:27:04;102174.22;;;8.96;100.00
78845;BME280;68195;50.854;2.860;2024-02-21T00:29:32;102176.81;;;8.96;100.00
78845;BME280;68195;50.854;2.860;2024-02-21T00:32:00;102174.25;;;8.95;100.00
78845;BME280;68195;50.854;2.860;2024-02-21T00:34:27;102176.88;;;8.93;100.00
78845;BME280;68195;50.854;2.860;2024-02-21T00:36:53;102179.44;;;8.96;100.00
78845;BME280;68195;50.854;2.860;2024-02-21T00:39:20;102160.41;;;8.91;100.00
78845;BME280;68195;50.854;2.860;2024-02-21T00:41:46;102161.03;;;9.02;100.00
78845;BME280;68195;50.854;2.860;2024-02-21T00:44:12;102139.31;;;9.05;100.00
78845;BME280;68195;50.854;2.860;2024-02-21T00:46:40;102112.47;;;8.98;100.00
78845;BME280;68195;50.854;2.860;2024-02-21T00:49:09;102109.94;;;8.97;100.00
78845;BME280;68195;50.854;2.860;2024-02-21T00:51:35;102116.72;;;9.04;100.00
78845;BME280;68195;50.854;2.860;2024-02-21T00:54:02;102114.09;;;9.06;100.00
78845;BME280;68195;50.854;2.860;2024-02-21T00:56:31;102108.06;;;9.03;100.00
78845;BME280;68195;50.854;2.860;2024-02-21T00:58:56;102107.22;;;9.01;100.00
78845;BME280;68195;50.854;2.860;2024-02-21T01:01:23;102115.91;;;9.00;100.00
78845;BME280;68195;50.854;2.860;2024-02-21T01:03:52;102120.19;;;9.04;100.00
78845;BME280;68195;50.854;2.860;2024-02-21T01:06:21;102125.38;;;9.04;100.00
78845;BME280;68195;50.854;2.860;2024-02-21T01:08:49;102121.00;;;9.07;100.00
78845;BME280;68195;50.854;2.860;2024-02-21T01:11:17;102116.69;;;9.06;100.00
78845;BME280;68195;50.854;2.860;2024-02-21T01:13:48;102089.25;;;8.89;100.00
78845;BME280;68195;50.854;2.860;2024-02-21T01:16:13;102105.59;;;8.96;100.00
78845;BME280;68195;50.854;2.860;2024-02-21T01:18:43;102103.94;;;8.92;100.00
78845;BME280;68195;50.854;2.860;2024-02-21T01:21:08;102116.81;;;8.99;100.00
78845;BME280;68195;50.854;2.860;2024-02-21T01:23:35;102079.03;;;8.78;100.00
78845;BME280;68195;50.854;2.860;2024-02-21T01:26:04;102113.28;;;9.02;100.00
78845;BME280;68195;50.854;2.860;2024-02-21T01:28:32;102103.94;;;8.92;100.00
78845;BME280;68195;50.854;2.860;2024-02-21T01:30:57;102090.16;;;8.88;100.00
78845;BME280;68195;50.854;2.860;2024-02-21T01:33:23;102110.78;;;8.97;100.00
78845;BME280;68195;50.854;2.860;2024-02-21T01:35:48;102110.78;;;8.97;100.00
78845;BME280;68195;50.854;2.860;2024-02-21T01:38:15;102102.97;;;8.97;100.00
78845;BME280;68195;50.854;2.860;2024-02-21T01:40:43;102086.00;;;8.78;100.00
78845;BME280;68195;50.854;2.860;2024-02-21T01:43:20;102105.81;;;8.85;100.00
78845;BME280;68195;50.854;2.860;2024-02-21T01:45:52;102102.47;;;8.80;100.00
78845;BME280;68195;50.854;2.860;2024-02-21T01:48:24;102099.03;;;8.78;100.00
78845;BME280;68195;50.854;2.860;2024-02-21T01:50:54;102093.69;;;8.84;100.00
78845;BME280;68195;50.854;2.860;2024-02-21T01:53:27;102069.69;;;8.70;100.00
78845;BME280;68195;50.854;2.860;2024-02-21T01:55:54;102079.09;;;8.77;100.00
78845;BME280;68195;50.854;2.860;2024-02-21T01:58:24;102059.06;;;8.79;100.00
78845;BME280;68195;50.854;2.860;2024-02-21T02:00:53;102073.50;;;8.94;100.00
78845;BME280;68195;50.854;2.860;2024-02-21T02:03:21;102058.03;;;8.88;100.00
78845;BME280;68195;50.854;2.860;2024-02-21T02:05:48;102062.22;;;8.93;100.00
78845;BME280;68195;50.854;2.860;2024-02-21T02:08:14;102048.38;;;8.91;100.00
78845;BME280;68195;50.854;2.860;2024-02-21T02:10:40;102059.59;;;8.95;100.00
78845;BME280;68195;50.854;2.860;2024-02-21T02:13:09;102036.41;;;8.84;100.00
78845;BME280;68195;50.854;2.860;2024-02-21T02:15:44;102041.34;;;8.96;100.00
78845;BME280;68195;50.854;2.860;2024-02-21T02:18:10;102047.41;;;8.97;100.00
78845;BME280;68195;50.854;2.860;2024-02-21T02:20:36;102033.69;;;8.89;100.00
78845;BME280;68195;50.854;2.860;2024-02-21T02:23:09;102050.84;;;8.99;100.00
78845;BME280;68195;50.854;2.860;2024-02-21T02:25:39;102051.69;;;8.99;100.00
78845;BME280;68195;50.854;2.860;2024-02-21T02:28:07;102018.97;;;8.86;100.00
78845;BME280;68195;50.854;2.860;2024-02-21T02:30:33;102030.91;;;8.96;100.00
78845;BME280;68195;50.854;2.860;2024-02-21T02:33:00;102012.88;;;8.87;100.00
78845;BME280;68195;50.854;2.860;2024-02-21T02:35:27;102033.41;;;9.01;100.00
78845;BME280;68195;50.854;2.860;2024-02-21T02:37:53;102004.88;;;8.96;100.00
78845;BME280;68195;50.854;2.860;2024-02-21T02:40:20;102006.44;;;9.02;100.00
78845;BME280;68195;50.854;2.860;2024-02-21T02:42:46;102001.25;;;9.02;100.00
78845;BME280;68195;50.854;2.860;2024-02-21T02:45:17;101989.22;;;8.96;100.00
78845;BME280;68195;50.854;2.860;2024-02-21T02:47:48;101986.56;;;8.98;100.00
78845;BME280;68195;50.854;2.860;2024-02-21T02:50:14;101995.91;;;9.08;100.00
78845;BME280;68195;50.854;2.860;2024-02-21T02:52:40;101988.06;;;9.08;100.00
78845;BME280;68195;50.854;2.860;2024-02-21T02:55:06;101965.66;;;9.01;100.00
78845;BME280;68195;50.854;2.860;2024-02-21T02:57:33;101978.56;;;9.07;100.00
78845;BME280;68195;50.854;2.860;2024-02-21T02:59:59;101971.66;;;9.04;100.00
78845;BME280;68195;50.854;2.860;2024-02-21T03:02:27;101957.88;;;8.99;100.00
78845;BME280;68195;50.854;2.860;2024-02-21T03:04:56;101968.97;;;9.08;100.00
78845;BME280;68195;50.854;2.860;2024-02-21T03:07:25;101956.00;;;9.04;100.00
78845;BME280;68195;50.854;2.860;2024-02-21T03:09:53;101944.72;;;9.06;100.00
78845;BME280;68195;50.854;2.860;2024-02-21T03:12:18;101929.31;;;8.96;100.00
78845;BME280;68195;50.854;2.860;2024-02-21T03:14:52;101945.53;;;9.08;100.00
78845;BME280;68195;50.854;2.860;2024-02-21T03:17:22;101931.72;;;9.02;100.00
78845;BME280;68195;50.854;2.860;2024-02-21T03:19:49;101935.09;;;9.08;100.00
78845;BME280;68195;50.854;2.860;2024-02-21T03:22:17;101917.19;;;8.94;100.00
78845;BME280;68195;50.854;2.860;2024-02-21T03:24:43;101940.22;;;9.11;100.00
78845;BME280;68195;50.854;2.860;2024-02-21T03:27:11;101911.06;;;8.96;100.00
78845;BME280;68195;50.854;2.860;2024-02-21T03:29:42;101938.56;;;9.08;100.00
78845;BME280;68195;50.854;2.860;2024-02-21T03:32:07;101916.34;;;8.93;100.00
78845;BME280;68195;50.854;2.860;2024-02-21T03:34:35;101930.75;;;9.08;100.00
78845;BME280;68195;50.854;2.860;2024-02-21T03:37:03;101937.75;;;9.06;100.00
78845;BME280;68195;50.854;2.860;2024-02-21T03:39:31;101928.25;;;9.03;100.00
78845;BME280;68195;50.854;2.860;2024-02-21T03:42:02;101918.06;;;8.94;100.00
78845;BME280;68195;50.854;2.860;2024-02-21T03:44:32;101933.38;;;9.07;100.00
78845;BME280;68195;50.854;2.860;2024-02-21T03:47:04;101924.81;;;9.03;100.00
78845;BME280;68195;50.854;2.860;2024-02-21T03:49:29;101902.50;;;8.90;100.00
78845;BME280;68195;50.854;2.860;2024-02-21T03:51:55;101921.31;;;9.02;100.00
78845;BME280;68195;50.854;2.860;2024-02-21T03:54:25;101916.22;;;8.98;100.00
78845;BME280;68195;50.854;2.860;2024-02-21T03:56:50;101925.69;;;9.02;100.00
78845;BME280;68195;50.854;2.860;2024-02-21T03:59:16;101933.34;;;9.08;100.00
78845;BME280;68195;50.854;2.860;2024-02-21T04:01:43;101929.19;;;9.01;100.00
78845;BME280;68195;50.854;2.860;2024-02-21T04:04:09;101933.38;;;9.07;100.00
78845;BME280;68195;50.854;2.860;2024-02-21T04:06:46;101904.16;;;8.94;100.00
78845;BME280;68195;50.854;2.860;2024-02-21T04:09:14;101893.91;;;8.88;100.00
78845;BME280;68195;50.854;2.860;2024-02-21T04:11:40;101922.19;;;9.03;100.00
78845;BME280;68195;50.854;2.860;2024-02-21T04:14:05;101921.31;;;9.02;100.00
78845;BME280;68195;50.854;2.860;2024-02-21T04:16:33;101907.38;;;9.05;100.00
78845;BME280;68195;50.854;2.860;2024-02-21T04:19:01;101905.69;;;9.02;100.00
78845;BME280;68195;50.854;2.860;2024-02-21T04:21:29;101886.72;;;8.97;100.00
78845;BME280;68195;50.854;2.860;2024-02-21T04:23:59;101897.00;;;9.02;100.00
78845;BME280;68195;50.854;2.860;2024-02-21T04:26:29;101897.91;;;9.01;100.00
78845;BME280;68195;50.854;2.860;2024-02-21T04:28:55;101882.44;;;8.95;100.00
78845;BME280;68195;50.854;2.860;2024-02-21T04:31:20;101880.53;;;9.01;100.00
78845;BME280;68195;50.854;2.860;2024-02-21T04:33:49;101834.16;;;8.81;100.00
78845;BME280;68195;50.854;2.860;2024-02-21T04:36:18;101836.81;;;8.78;100.00
78845;BME280;68195;50.854;2.860;2024-02-21T04:38:46;101860.00;;;8.89;100.00
78845;BME280;68195;50.854;2.860;2024-02-21T04:41:14;101853.09;;;8.87;100.00
78845;BME280;68195;50.854;2.860;2024-02-21T04:43:41;101858.28;;;8.88;100.00
78845;BME280;68195;50.854;2.860;2024-02-21T04:46:07;101865.88;;;8.97;100.00
78845;BME280;68195;50.854;2.860;2024-02-21T04:48:35;101867.56;;;8.98;100.00
78845;BME280;68195;50.854;2.860;2024-02-21T04:51:00;101842.66;;;8.88;100.00
78845;BME280;68195;50.854;2.860;2024-02-21T04:53:26;101856.25;;;8.99;100.00
78845;BME280;68195;50.854;2.860;2024-02-21T04:55:51;101822.00;;;8.80;100.00
78845;BME280;68195;50.854;2.860;2024-02-21T04:58:16;101845.03;;;8.97;100.00
78845;BME280;68195;50.854;2.860;2024-02-21T05:00:42;101844.94;;;9.00;100.00
78845;BME280;68195;50.854;2.860;2024-02-21T05:03:07;101814.88;;;8.87;100.00
78845;BME280;68195;50.854;2.860;2024-02-21T05:05:36;101826.78;;;8.97;100.00
78845;BME280;68195;50.854;2.860;2024-02-21T05:08:07;101822.41;;;8.99;100.00
78845;BME280;68195;50.854;2.860;2024-02-21T05:10:35;101799.34;;;8.84;100.00
78845;BME280;68195;50.854;2.860;2024-02-21T05:13:00;101822.47;;;8.96;100.00
78845;BME280;68195;50.854;2.860;2024-02-21T05:15:31;101805.34;;;8.88;100.00
78845;BME280;68195;50.854;2.860;2024-02-21T05:17:57;101816.41;;;8.96;100.00
78845;BME280;68195;50.854;2.860;2024-02-21T05:20:25;101826.75;;;8.99;100.00
78845;BME280;68195;50.854;2.860;2024-02-21T05:22:52;101815.47;;;8.98;100.00
78845;BME280;68195;50.854;2.860;2024-02-21T05:25:18;101817.22;;;8.98;100.00
78845;BME280;68195;50.854;2.860;2024-02-21T05:27:46;101778.63;;;8.79;100.00
78845;BME280;68195;50.854;2.860;2024-02-21T05:30:12;101799.09;;;8.93;100.00
78845;BME280;68195;50.854;2.860;2024-02-21T05:32:40;101780.16;;;8.87;100.00
78845;BME280;68195;50.854;2.860;2024-02-21T05:35:12;101788.63;;;8.96;100.00
78845;BME280;68195;50.854;2.860;2024-02-21T05:37:38;101782.53;;;8.96;100.00
78845;BME280;68195;50.854;2.860;2024-02-21T05:40:06;101754.94;;;8.89;100.00
78845;BME280;68195;50.854;2.860;2024-02-21T05:42:31;101776.38;;;8.98;100.00
78845;BME280;68195;50.854;2.860;2024-02-21T05:44:57;101742.09;;;8.81;100.00
78845;BME280;68195;50.854;2.860;2024-02-21T05:47:25;101721.69;;;8.66;100.00
78845;BME280;68195;50.854;2.860;2024-02-21T05:49:53;101753.25;;;8.88;100.00
78845;BME280;68195;50.854;2.860;2024-02-21T05:52:19;101746.34;;;8.85;100.00
78845;BME280;68195;50.854;2.860;2024-02-21T05:54:47;101761.06;;;8.88;100.00
78845;BME280;68195;50.854;2.860;2024-02-21T05:57:19;101765.16;;;8.96;100.00
78845;BME280;68195;50.854;2.860;2024-02-21T05:59:47;101768.66;;;8.95;100.00
78845;BME280;68195;50.854;2.860;2024-02-21T06:02:17;101767.78;;;8.96;100.00
78845;BME280;68195;50.854;2.860;2024-02-21T06:04:45;101732.56;;;8.81;100.00
78845;BME280;68195;50.854;2.860;2024-02-21T06:07:11;101736.91;;;8.81;100.00
78845;BME280;68195;50.854;2.860;2024-02-21T06:09:37;101747.13;;;8.89;100.00
78845;BME280;68195;50.854;2.860;2024-02-21T06:12:02;101706.81;;;8.71;100.00
78845;BME280;68195;50.854;2.860;2024-02-21T06:14:28;101722.09;;;8.83;100.00
78845;BME280;68195;50.854;2.860;2024-02-21T06:16:55;101729.66;;;8.92;100.00
78845;BME280;68195;50.854;2.860;2024-02-21T06:19:23;101700.66;;;8.73;100.00
78845;BME280;68195;50.854;2.860;2024-02-21T06:21:50;101699.56;;;8.82;100.00
78845;BME280;68195;50.854;2.860;2024-02-21T06:24:16;101686.03;;;8.68;100.00
78845;BME280;68195;50.854;2.860;2024-02-21T06:26:41;101694.59;;;8.73;100.00
78845;BME280;68195;50.854;2.860;2024-02-21T06:29:10;101714.16;;;8.88;100.00
78845;BME280;68195;50.854;2.860;2024-02-21T06:31:36;101704.88;;;8.77;100.00
78845;BME280;68195;50.854;2.860;2024-02-21T06:34:06;101722.88;;;8.87;100.00
78845;BME280;68195;50.854;2.860;2024-02-21T06:36:34;101700.53;;;8.78;100.00
78845;BME280;68195;50.854;2.860;2024-02-21T06:39:02;101721.09;;;8.87;100.00
78845;BME280;68195;50.854;2.860;2024-02-21T06:41:35;101704.72;;;8.83;100.00
78845;BME280;68195;50.854;2.860;2024-02-21T06:44:00;101690.91;;;8.80;100.00
78845;BME280;68195;50.854;2.860;2024-02-21T06:46:28;101685.53;;;8.86;100.00
78845;BME280;68195;50.854;2.860;2024-02-21T06:48:59;101699.38;;;8.88;100.00
78845;BME280;68195;50.854;2.860;2024-02-21T06:51:27;101686.41;;;8.87;100.00
78845;BME280;68195;50.854;2.860;2024-02-21T06:53:53;101699.41;;;8.87;100.00
78845;BME280;68195;50.854;2.860;2024-02-21T06:56:19;101695.06;;;8.87;100.00
78845;BME280;68195;50.854;2.860;2024-02-21T06:58:45;101668.50;;;8.74;100.00
78845;BME280;68195;50.854;2.860;2024-02-21T07:01:13;101680.50;;;8.80;100.00
78845;BME280;68195;50.854;2.860;2024-02-21T07:03:44;101703.75;;;8.88;100.00
78845;BME280;68195;50.854;2.860;2024-02-21T07:06:09;101702.03;;;8.87;100.00
78845;BME280;68195;50.854;2.860;2024-02-21T07:08:35;101684.69;;;8.86;100.00
78845;BME280;68195;50.854;2.860;2024-02-21T07:11:00;101646.09;;;8.69;100.00
78845;BME280;68195;50.854;2.860;2024-02-21T07:13:28;101657.09;;;8.78;100.00
78845;BME280;68195;50.854;2.860;2024-02-21T07:15:53;101623.47;;;8.71;100.00
78845;BME280;68195;50.854;2.860;2024-02-21T07:18:18;101629.28;;;8.79;100.00
78845;BME280;68195;50.854;2.860;2024-02-21T07:20:44;101623.31;;;8.77;100.00
78845;BME280;68195;50.854;2.860;2024-02-21T07:23:12;101621.69;;;8.73;100.00
78845;BME280;68195;50.854;2.860;2024-02-21T07:25:38;101647.34;;;8.85;100.00
78845;BME280;68195;50.854;2.860;2024-02-21T07:28:11;101626.06;;;8.71;100.00
78845;BME280;68195;50.854;2.860;2024-02-21T07:30:36;101636.94;;;8.85;100.00
78845;BME280;68195;50.854;2.860;2024-02-21T07:33:07;101631.78;;;8.83;100.00
78845;BME280;68195;50.854;2.860;2024-02-21T07:35:37;101623.06;;;8.85;100.00
78845;BME280;68195;50.854;2.860;2024-02-21T07:38:05;101619.50;;;8.87;100.00
78845;BME280;68195;50.854;2.860;2024-02-21T07:40:33;101598.94;;;8.78;100.00
78845;BME280;68195;50.854;2.860;2024-02-21T07:43:01;101572.91;;;8.78;100.00
78845;BME280;68195;50.854;2.860;2024-02-21T07:45:26;101553.97;;;8.73;100.00
78845;BME280;68195;50.854;2.860;2024-02-21T07:47:54;101563.25;;;8.81;100.00
78845;BME280;68195;50.854;2.860;2024-02-21T07:50:24;101561.31;;;8.88;100.00
78845;BME280;68195;50.854;2.860;2024-02-21T07:52:52;101542.50;;;8.78;100.00
78845;BME280;68195;50.854;2.860;2024-02-21T07:55:17;101552.88;;;8.80;100.00
78845;BME280;68195;50.854;2.860;2024-02-21T07:57:43;101560.59;;;8.83;100.00
78845;BME280;68195;50.854;2.860;2024-02-21T08:00:08;101539.03;;;8.78;100.00
78845;BME280;68195;50.854;2.860;2024-02-21T08:02:37;101563.09;;;8.88;100.00
78845;BME280;68195;50.854;2.860;2024-02-21T08:05:03;101569.16;;;8.88;100.00
78845;BME280;68195;50.854;2.860;2024-02-21T08:07:31;101571.78;;;8.87;100.00
78845;BME280;68195;50.854;2.860;2024-02-21T08:09:58;101558.97;;;8.79;100.00
78845;BME280;68195;50.854;2.860;2024-02-21T08:12:24;101565.72;;;8.86;100.00
78845;BME280;68195;50.854;2.860;2024-02-21T08:14:51;101534.81;;;8.74;100.00
78845;BME280;68195;50.854;2.860;2024-02-21T08:17:19;101523.63;;;8.70;100.00
78845;BME280;68195;50.854;2.860;2024-02-21T08:19:46;101522.78;;;8.70;100.00
78845;BME280;68195;50.854;2.860;2024-02-21T08:22:14;101525.91;;;8.81;100.00
78845;BME280;68195;50.854;2.860;2024-02-21T08:24:42;101503.44;;;8.78;100.00
78845;BME280;68195;50.854;2.860;2024-02-21T08:27:07;101518.84;;;8.86;100.00
78845;BME280;68195;50.854;2.860;2024-02-21T08:29:33;101492.28;;;8.75;100.00
78845;BME280;68195;50.854;2.860;2024-02-21T08:31:58;101500.69;;;8.83;100.00
78845;BME280;68195;50.854;2.860;2024-02-21T08:34:23;101480.94;;;8.76;100.00
78845;BME280;68195;50.854;2.860;2024-02-21T08:36:51;101503.22;;;8.86;100.00
78845;BME280;68195;50.854;2.860;2024-02-21T08:39:16;101472.56;;;8.66;100.00
78845;BME280;68195;50.854;2.860;2024-02-21T08:41:42;101450.28;;;8.57;100.00
78845;BME280;68195;50.854;2.860;2024-02-21T08:44:10;101457.88;;;8.63;100.00
78845;BME280;68195;50.854;2.860;2024-02-21T08:46:36;101462.09;;;8.68;100.00
78845;BME280;68195;50.854;2.860;2024-02-21T08:49:07;101466.97;;;8.78;100.00
78845;BME280;68195;50.854;2.860;2024-02-21T08:51:38;101441.06;;;8.74;100.00
78845;BME280;68195;50.854;2.860;2024-02-21T08:54:05;101454.72;;;8.82;100.00
78845;BME280;68195;50.854;2.860;2024-02-21T08:56:33;101437.59;;;8.75;100.00
78845;BME280;68195;50.854;2.860;2024-02-21T08:59:01;101448.66;;;8.81;100.00
78845;BME280;68195;50.854;2.860;2024-02-21T09:01:26;101454.41;;;8.91;100.00
78845;BME280;68195;50.854;2.860;2024-02-21T09:03:52;101420.25;;;8.74;100.00
78845;BME280;68195;50.854;2.860;2024-02-21T09:06:21;101443.13;;;8.92;100.00
78845;BME280;68195;50.854;2.860;2024-02-21T09:08:48;101424.31;;;8.82;100.00
78845;BME280;68195;50.854;2.860;2024-02-21T09:11:14;101421.63;;;8.86;100.00
78845;BME280;68195;50.854;2.860;2024-02-21T09:13:40;101426.50;;;8.96;100.00
78845;BME280;68195;50.854;2.860;2024-02-21T09:16:07;101425.69;;;8.94;100.00
78845;BME280;68195;50.854;2.860;2024-02-21T09:18:36;101415.38;;;8.90;100.00
78845;BME280;68195;50.854;2.860;2024-02-21T09:21:04;101415.28;;;8.94;100.00
78845;BME280;68195;50.854;2.860;2024-02-21T09:23:30;101382.03;;;8.74;100.00
78845;BME280;68195;50.854;2.860;2024-02-21T09:25:57;101384.34;;;8.83;100.00
78845;BME280;68195;50.854;2.860;2024-02-21T09:28:22;101385.19;;;8.84;100.00
78845;BME280;68195;50.854;2.860;2024-02-21T09:30:47;101409.81;;;9.00;100.00
78845;BME280;68195;50.854;2.860;2024-02-21T09:33:18;101392.81;;;8.90;100.00
78845;BME280;68195;50.854;2.860;2024-02-21T09:35:43;101373.81;;;8.87;100.00
78845;BME280;68195;50.854;2.860;2024-02-21T09:38:11;101375.63;;;8.85;100.00
78845;BME280;68195;50.854;2.860;2024-02-21T09:40:41;101376.91;;;8.98;100.00
78845;BME280;68195;50.854;2.860;2024-02-21T09:43:09;101372.47;;;9.01;100.00
78845;BME280;68195;50.854;2.860;2024-02-21T09:45:40;101374.28;;;8.99;100.00
78845;BME280;68195;50.854;2.860;2024-02-21T09:51:21;101354.22;;;9.01;100.00
78845;BME280;68195;50.854;2.860;2024-02-21T09:53:50;101343.00;;;8.99;100.00
78845;BME280;68195;50.854;2.860;2024-02-21T09:56:16;101351.50;;;9.04;100.00
78845;BME280;68195;50.854;2.860;2024-02-21T09:58:44;101328.50;;;8.92;100.00
78845;BME280;68195;50.854;2.860;2024-02-21T10:01:09;101346.38;;;9.03;100.00
78845;BME280;68195;50.854;2.860;2024-02-21T10:03:35;101327.41;;;8.98;100.00
78845;BME280;68195;50.854;2.860;2024-02-21T10:06:03;101336.69;;;9.07;100.00
78845;BME280;68195;50.854;2.860;2024-02-21T10:08:28;101317.72;;;9.03;100.00
78845;BME280;68195;50.854;2.860;2024-02-21T10:10:56;101305.56;;;9.02;100.00
78845;BME280;68195;50.854;2.860;2024-02-21T10:13:28;101325.28;;;9.09;100.00
78845;BME280;68195;50.854;2.860;2024-02-21T10:16:03;101320.84;;;9.13;100.00
78845;BME280;68195;50.854;2.860;2024-02-21T10:18:34;101302.00;;;9.04;100.00
78845;BME280;68195;50.854;2.860;2024-02-21T10:21:07;101291.75;;;9.00;100.00
78845;BME280;68195;50.854;2.860;2024-02-21T10:26:12;101299.09;;;9.14;100.00
78845;BME280;68195;50.854;2.860;2024-02-21T10:28:38;101298.16;;;9.16;100.00
78845;BME280;68195;50.854;2.860;2024-02-21T10:31:21;101291.22;;;9.15;100.00
78845;BME280;68195;50.854;2.860;2024-02-21T10:34:00;101267.25;;;9.06;100.00
78845;BME280;68195;50.854;2.860;2024-02-21T10:36:28;101279.06;;;9.16;100.00
78845;BME280;68195;50.854;2.860;2024-02-21T10:38:56;101266.13;;;9.13;100.00
78845;BME280;68195;50.854;2.860;2024-02-21T10:41:23;101265.09;;;9.17;100.00
78845;BME280;68195;50.854;2.860;2024-02-21T10:43:57;101257.25;;;9.18;100.00
78845;BME280;68195;50.854;2.860;2024-02-21T10:46:25;101259.00;;;9.18;100.00
78845;BME280;68195;50.854;2.860;2024-02-21T10:49:03;101245.19;;;9.16;100.00
78845;BME280;68195;50.854;2.860;2024-02-21T10:51:37;101240.06;;;9.13;100.00
78845;BME280;68195;50.854;2.860;2024-02-21T10:54:30;101249.09;;;9.28;100.00
78845;BME280;68195;50.854;2.860;2024-02-21T10:57:02;101223.47;;;9.15;100.00
78845;BME280;68195;50.854;2.860;2024-02-21T10:59:30;101222.41;;;9.21;100.00
78845;BME280;68195;50.854;2.860;2024-02-21T11:01:57;101229.09;;;9.28;100.00
78845;BME280;68195;50.854;2.860;2024-02-21T11:04:25;101226.56;;;9.27;100.00
78845;BME280;68195;50.854;2.860;2024-02-21T11:06:56;101190.59;;;9.11;100.00
78845;BME280;68195;50.854;2.860;2024-02-21T11:09:34;101210.84;;;9.28;100.00
78845;BME280;68195;50.854;2.860;2024-02-21T11:12:05;101205.75;;;9.25;100.00
78845;BME280;68195;50.854;2.860;2024-02-21T11:14:31;101185.25;;;9.16;100.00
78845;BME280;68195;50.854;2.860;2024-02-21T11:17:16;101197.00;;;9.26;100.00
78845;BME280;68195;50.854;2.860;2024-02-21T11:19:45;101172.09;;;9.19;100.00
78845;BME280;68195;50.854;2.860;2024-02-21T11:22:20;101183.94;;;9.28;100.00
78845;BME280;68195;50.854;2.860;2024-02-21T11:24:48;101171.91;;;9.23;100.00
78845;BME280;68195;50.854;2.860;2024-02-21T11:27:19;101170.72;;;9.32;100.00
78845;BME280;68195;50.854;2.860;2024-02-21T11:29:56;101156.72;;;9.35;100.00
78845;BME280;68195;50.854;2.860;2024-02-21T11:32:25;101146.28;;;9.35;100.00
78845;BME280;68195;50.854;2.860;2024-02-21T11:35:01;101131.41;;;9.38;100.00
78845;BME280;68195;50.854;2.860;2024-02-21T11:37:34;101119.38;;;9.34;100.00
78845;BME280;68195;50.854;2.860;2024-02-21T11:40:05;101124.09;;;9.48;100.00
78845;BME280;68195;50.854;2.860;2024-02-21T11:42:37;101112.06;;;9.44;100.00
78845;BME280;68195;50.854;2.860;2024-02-21T11:45:06;101102.44;;;9.46;100.00
78845;BME280;68195;50.854;2.860;2024-02-21T11:47:31;101097.22;;;9.46;100.00
78845;BME280;68195;50.854;2.860;2024-02-21T11:49:57;101081.63;;;9.44;100.00
78845;BME280;68195;50.854;2.860;2024-02-21T11:52:28;101052.41;;;9.36;100.00
78845;BME280;68195;50.854;2.860;2024-02-21T11:54:56;101064.78;;;9.53;100.00
78845;BME280;68195;50.854;2.860;2024-02-21T11:57:29;101068.81;;;9.60;100.00
78845;BME280;68195;50.854;2.860;2024-02-21T11:59:57;101050.50;;;9.62;100.00
78845;BME280;68195;50.854;2.860;2024-02-21T12:02:27;101004.31;;;9.43;100.00
78845;BME280;68195;50.854;2.860;2024-02-21T12:04:57;100997.28;;;9.45;100.00
78845;BME280;68195;50.854;2.860;2024-02-21T12:07:23;100986.81;;;9.47;100.00
78845;BME280;68195;50.854;2.860;2024-02-21T12:09:51;101012.13;;;9.65;100.00
78845;BME280;68195;50.854;2.860;2024-02-21T12:12:20;100999.94;;;9.66;100.00
78845;BME280;68195;50.854;2.860;2024-02-21T12:14:45;100982.06;;;9.57;100.00
78845;BME280;68195;50.854;2.860;2024-02-21T12:17:10;100988.97;;;9.58;100.00
78845;BME280;68195;50.854;2.860;2024-02-21T12:19:40;100975.19;;;9.54;100.00
78845;BME280;68195;50.854;2.860;2024-02-21T12:22:06;100980.88;;;9.64;100.00
78845;BME280;68195;50.854;2.860;2024-02-21T12:24:34;100962.84;;;9.59;100.00
78845;BME280;68195;50.854;2.860;2024-02-21T12:27:03;100944.78;;;9.55;100.00
78845;BME280;68195;50.854;2.860;2024-02-21T12:29:31;100955.22;;;9.55;100.00
78845;BME280;68195;50.854;2.860;2024-02-21T12:31:58;100942.81;;;9.60;100.00
78845;BME280;68195;50.854;2.860;2024-02-21T12:34:24;100901.75;;;9.44;100.00
78845;BME280;68195;50.854;2.860;2024-02-21T12:36:52;100934.78;;;9.64;100.00
78845;BME280;68195;50.854;2.860;2024-02-21T12:39:22;100916.75;;;9.60;100.00
78845;BME280;68195;50.854;2.860;2024-02-21T12:41:52;100919.50;;;9.57;100.00
78845;BME280;68195;50.854;2.860;2024-02-21T12:44:23;100913.34;;;9.58;100.00
78845;BME280;68195;50.854;2.860;2024-02-21T12:46:49;100886.13;;;9.44;100.00
78845;BME280;68195;50.854;2.860;2024-02-21T12:49:18;100898.44;;;9.61;100.00
78845;BME280;68195;50.854;2.860;2024-02-21T12:51:45;100880.25;;;9.60;100.00
78845;BME280;68195;50.854;2.860;2024-02-21T12:54:16;100861.47;;;9.52;100.00
78845;BME280;68195;50.854;2.860;2024-02-21T12:56:44;100874.38;;;9.55;100.00
78845;BME280;68195;50.854;2.860;2024-02-21T12:59:11;100828.19;;;9.38;100.00